createdAt,value
2023-01-11T00:01:09.668Z,6.30
2023-01-11T00:03:41.801Z,6.40
2023-01-11T00:06:14.396Z,6.40
2023-01-11T00:08:46.549Z,6.50
2023-01-11T00:11:18.730Z,6.50
2023-01-11T00:13:50.858Z,6.50
2023-01-11T00:16:23.305Z,6.60
2023-01-11T00:18:56.203Z,6.60
2023-01-11T00:21:28.948Z,6.70
2023-01-11T00:24:01.798Z,6.70
2023-01-11T00:26:34.186Z,6.70
2023-01-11T00:29:06.559Z,6.70
2023-01-11T00:31:38.690Z,6.80
2023-01-11T00:34:11.537Z,6.80
2023-01-11T00:36:43.905Z,6.80
2023-01-11T00:39:16.027Z,6.80
2023-01-11T00:42:06.938Z,6.80
2023-01-11T00:45:17.020Z,6.90
2023-01-11T00:48:10.919Z,6.90
2023-01-11T00:50:42.995Z,6.90
2023-01-11T00:53:15.505Z,6.90
2023-01-11T00:55:49.174Z,6.90
2023-01-11T00:58:21.260Z,6.90
2023-01-11T01:00:54.079Z,7.00
2023-01-11T01:03:27.173Z,7.00
2023-01-11T01:06:02.811Z,7.00
2023-01-11T01:08:35.979Z,7.00
2023-01-11T01:11:08.713Z,7.00
2023-01-11T01:13:59.642Z,7.00
2023-01-11T01:16:56.436Z,6.90
2023-01-11T01:19:38.449Z,6.90
2023-01-11T01:22:10.524Z,6.90
2023-01-11T01:24:42.907Z,6.80
2023-01-11T01:27:18.047Z,6.90
2023-01-11T01:29:50.954Z,6.90
2023-01-11T01:32:22.990Z,6.90
2023-01-11T01:34:54.972Z,7.00
2023-01-11T01:37:27.097Z,6.90
2023-01-11T01:39:59.147Z,7.00
2023-01-11T01:42:31.279Z,7.00
2023-01-11T01:45:26.364Z,7.00
2023-01-11T01:48:04.232Z,6.90
2023-01-11T01:50:50.603Z,6.90
2023-01-11T01:53:37.880Z,6.90
2023-01-11T01:56:27.874Z,6.90
2023-01-11T01:59:21.985Z,6.90
2023-01-11T02:01:57.123Z,6.90
2023-01-11T02:04:38.207Z,6.90
2023-01-11T02:07:19.558Z,6.90
2023-01-11T02:10:04.764Z,6.90
2023-01-11T02:13:01.035Z,6.90
2023-01-11T02:15:36.890Z,6.90
2023-01-11T02:18:13.858Z,7.00
2023-01-11T02:20:45.899Z,7.00
2023-01-11T02:23:46.442Z,7.00
2023-01-11T02:26:50.100Z,7.10
2023-01-11T02:30:06.540Z,7.10
2023-01-11T02:33:40.778Z,7.20
2023-01-11T02:36:50.036Z,7.20
2023-01-11T02:40:07.328Z,7.20
2023-01-11T02:43:34.486Z,7.20
2023-01-11T02:46:52.427Z,7.20
2023-01-11T02:49:38.012Z,7.30
2023-01-11T02:52:49.249Z,7.40
2023-01-11T02:55:46.061Z,7.40
2023-01-11T02:58:27.245Z,7.50
2023-01-11T03:01:03.351Z,7.50
2023-01-11T03:03:36.357Z,7.50
2023-01-11T03:06:13.947Z,7.60
2023-01-11T03:09:17.366Z,7.60
2023-01-11T03:12:24.673Z,7.70
2023-01-11T03:15:42.098Z,7.70
2023-01-11T03:19:00.873Z,7.70
2023-01-11T03:21:50.963Z,7.80
2023-01-11T03:24:58.054Z,7.80
2023-01-11T03:28:01.402Z,7.80
2023-01-11T03:31:03.753Z,7.90
2023-01-11T03:34:16.570Z,7.90
2023-01-11T03:37:15.704Z,8.00
2023-01-11T03:40:13.665Z,8.00
2023-01-11T03:43:11.820Z,8.00
2023-01-11T03:45:51.466Z,8.00
2023-01-11T03:48:42.233Z,8.00
2023-01-11T03:51:29.556Z,8.00
2023-01-11T03:54:08.619Z,8.00
2023-01-11T03:57:14.130Z,8.10
2023-01-11T03:59:51.507Z,8.10
2023-01-11T04:02:34.396Z,8.10
2023-01-11T04:05:11.347Z,8.10
2023-01-11T04:07:43.357Z,8.20
2023-01-11T04:10:15.673Z,8.20
2023-01-11T04:12:48.548Z,8.20
2023-01-11T04:15:20.663Z,8.20
2023-01-11T04:17:52.570Z,8.30
2023-01-11T04:20:24.602Z,8.30
2023-01-11T04:22:56.483Z,8.40
2023-01-11T04:25:28.643Z,8.40
2023-01-11T04:28:01.331Z,8.40
2023-01-11T04:30:34.025Z,8.40
2023-01-11T04:33:06.793Z,8.40
2023-01-11T04:35:38.935Z,8.40
2023-01-11T04:38:11.003Z,8.40
2023-01-11T04:40:43.120Z,8.40
2023-01-11T04:43:15.225Z,8.40
2023-01-11T04:45:47.265Z,8.40
2023-01-11T04:48:20.112Z,8.40
2023-01-11T04:50:52.133Z,8.40
2023-01-11T04:53:24.137Z,8.30
2023-01-11T04:56:03.101Z,8.30
2023-01-11T04:58:38.069Z,8.30
2023-01-11T05:01:17.082Z,8.20
2023-01-11T05:03:51.308Z,8.20
2023-01-11T05:06:23.554Z,8.10
2023-01-11T05:08:56.476Z,8.10
2023-01-11T05:11:28.501Z,8.10
2023-01-11T05:14:00.415Z,8.10
2023-01-11T05:16:33.339Z,8.10
2023-01-11T05:19:06.464Z,8.10
2023-01-11T05:21:41.526Z,8.00
2023-01-11T05:24:16.140Z,8.00
2023-01-11T05:26:50.094Z,8.00
2023-01-11T05:29:23.448Z,8.00
2023-01-11T05:31:55.501Z,8.00
2023-01-11T05:34:27.691Z,7.90
2023-01-11T05:36:59.738Z,7.80
2023-01-11T05:39:31.835Z,7.90
2023-01-11T05:42:04.117Z,7.90
2023-01-11T05:44:56.789Z,7.90
2023-01-11T05:47:53.752Z,7.90
2023-01-11T05:50:26.964Z,7.90
2023-01-11T05:52:59.052Z,7.90
2023-01-11T05:55:31.036Z,7.90
2023-01-11T05:58:05.805Z,7.80
2023-01-11T06:00:37.964Z,7.80
2023-01-11T06:03:10.078Z,7.80
2023-01-11T06:05:42.240Z,7.70
2023-01-11T06:08:15.176Z,7.80
2023-01-11T06:10:55.157Z,7.80
2023-01-11T06:13:28.249Z,7.80
2023-01-11T06:16:03.959Z,7.80
2023-01-11T06:18:43.068Z,7.80
2023-01-11T06:21:18.041Z,7.80
2023-01-11T06:23:53.465Z,7.80
2023-01-11T06:26:26.103Z,7.80
2023-01-11T06:29:00.745Z,7.70
2023-01-11T06:31:32.742Z,7.80
2023-01-11T06:34:04.802Z,7.80
2023-01-11T06:36:36.971Z,7.80
2023-01-11T06:39:10.762Z,7.90
2023-01-11T06:41:42.757Z,7.90
2023-01-11T06:44:27.013Z,8.00
2023-01-11T06:46:59.061Z,8.00
2023-01-11T06:49:31.159Z,8.00
2023-01-11T06:52:03.360Z,8.00
2023-01-11T06:54:35.295Z,8.00
2023-01-11T06:57:07.268Z,8.00
2023-01-11T06:59:43.365Z,7.90
2023-01-11T07:02:15.479Z,8.00
2023-01-11T07:04:47.884Z,8.10
2023-01-11T07:07:20.070Z,8.10
2023-01-11T07:09:53.763Z,8.10
2023-01-11T07:12:26.079Z,8.10
2023-01-11T07:14:58.302Z,8.10
2023-01-11T07:17:31.083Z,8.20
2023-01-11T07:20:05.217Z,8.20
2023-01-11T07:22:37.748Z,8.30
2023-01-11T07:25:10.159Z,8.30
2023-01-11T07:27:43.640Z,8.30
2023-01-11T07:30:15.951Z,8.40
2023-01-11T07:32:48.541Z,8.40
2023-01-11T07:35:21.353Z,8.50
2023-01-11T07:37:53.694Z,8.50
2023-01-11T07:40:25.761Z,8.60
2023-01-11T07:43:16.580Z,8.70
2023-01-11T07:45:52.994Z,8.70
2023-01-11T07:48:31.836Z,8.80
2023-01-11T07:51:04.079Z,8.80
2023-01-11T07:53:37.114Z,8.90
2023-01-11T07:56:09.617Z,8.90
2023-01-11T07:58:41.750Z,9.00
2023-01-11T08:01:14.001Z,9.10
2023-01-11T08:03:46.650Z,9.10
2023-01-11T08:06:19.092Z,9.20
2023-01-11T08:08:51.516Z,9.20
2023-01-11T08:11:42.219Z,9.30
2023-01-11T08:14:39.833Z,9.30
2023-01-11T08:17:14.951Z,9.40
2023-01-11T08:19:47.341Z,9.50
2023-01-11T08:22:19.557Z,9.40
2023-01-11T08:24:51.781Z,9.50
2023-01-11T08:27:24.146Z,9.50
2023-01-11T08:29:56.167Z,9.50
2023-01-11T08:32:29.211Z,9.50
2023-01-11T08:35:06.978Z,9.50
2023-01-11T08:37:40.158Z,9.50
2023-01-11T08:40:13.183Z,9.50
2023-01-11T08:42:45.799Z,9.50
2023-01-11T08:45:18.134Z,9.50
2023-01-11T08:47:52.049Z,9.50
2023-01-11T08:50:25.450Z,9.50
2023-01-11T08:52:57.575Z,9.60
2023-01-11T08:55:30.854Z,9.60
2023-01-11T08:58:03.783Z,9.60
2023-01-11T09:00:36.177Z,9.60
2023-01-11T09:03:08.907Z,9.70
2023-01-11T09:05:43.115Z,9.70
2023-01-11T09:08:16.265Z,9.70
2023-01-11T09:10:48.797Z,9.80
2023-01-11T09:13:21.408Z,9.80
2023-01-11T09:16:00.052Z,9.90
2023-01-11T09:18:33.032Z,9.90
2023-01-11T09:21:05.958Z,9.90
2023-01-11T09:23:38.312Z,10.00
2023-01-11T09:26:12.173Z,10.00
2023-01-11T09:28:45.232Z,10.00
2023-01-11T09:31:17.589Z,10.10
2023-01-11T09:33:50.135Z,10.10
2023-01-11T09:36:25.224Z,10.10
2023-01-11T09:39:01.984Z,10.20
2023-01-11T09:42:35.684Z,10.20
2023-01-11T09:45:23.521Z,10.20
2023-01-11T09:48:12.968Z,10.20
2023-01-11T09:50:56.875Z,10.20
2023-01-11T09:53:35.043Z,10.20
2023-01-11T09:56:13.168Z,10.20
2023-01-11T09:59:06.582Z,10.20
2023-01-11T10:02:16.669Z,10.20
2023-01-11T10:05:31.969Z,10.20
2023-01-11T10:18:32.762Z,10.30
2023-01-11T10:19:12.301Z,10.40
2023-01-11T10:21:40.976Z,10.40
2023-01-11T10:24:48.482Z,10.40
2023-01-11T10:27:55.525Z,10.50
2023-01-11T10:30:54.973Z,10.50
2023-01-11T10:34:06.441Z,10.50
2023-01-11T10:37:43.273Z,10.50
2023-01-11T10:41:04.466Z,10.60
2023-01-11T10:43:54.629Z,10.60
2023-01-11T10:46:51.110Z,10.60
2023-01-11T10:50:06.061Z,10.60
2023-01-11T10:53:14.776Z,10.60
2023-01-11T10:56:42.489Z,10.70
2023-01-11T10:59:41.915Z,10.70
2023-01-11T11:02:50.633Z,10.70
2023-01-11T11:05:59.431Z,10.70
2023-01-11T11:09:00.170Z,10.70
2023-01-11T11:12:13.597Z,10.60
2023-01-11T11:15:27.282Z,10.60
2023-01-11T11:18:09.709Z,10.70
2023-01-11T11:20:47.089Z,10.60
2023-01-11T11:23:24.551Z,10.60
2023-01-11T11:26:02.047Z,10.60
2023-01-11T11:28:35.364Z,10.60
2023-01-11T11:31:11.292Z,10.70
2023-01-11T11:33:47.037Z,10.70
2023-01-11T11:36:19.319Z,10.70
2023-01-11T11:39:23.982Z,10.80
2023-01-11T11:42:15.192Z,10.80
2023-01-11T11:45:10.428Z,10.80
2023-01-11T11:48:01.234Z,10.80
2023-01-11T11:50:44.632Z,10.90
2023-01-11T11:53:37.749Z,10.90
2023-01-11T11:56:23.195Z,10.90
2023-01-11T11:59:09.299Z,10.90
2023-01-11T12:01:49.754Z,10.90
2023-01-11T12:04:48.811Z,10.90
2023-01-11T12:07:24.682Z,10.90
2023-01-11T12:10:02.725Z,10.80
2023-01-11T12:12:57.815Z,10.80
2023-01-11T12:15:55.428Z,10.80
2023-01-11T12:18:43.559Z,10.80
2023-01-11T12:21:22.769Z,10.80
2023-01-11T12:24:13.535Z,10.80
2023-01-11T12:26:53.205Z,10.70
2023-01-11T12:29:39.251Z,10.70
2023-01-11T12:32:48.471Z,10.70
2023-01-11T12:36:15.071Z,10.70
2023-01-11T12:39:26.268Z,10.70
2023-01-11T12:42:30.008Z,10.70
2023-01-11T12:45:26.199Z,10.70
2023-01-11T12:48:24.275Z,10.70
2023-01-11T12:51:19.085Z,10.80
2023-01-11T12:54:30.233Z,10.80
2023-01-11T12:57:27.702Z,10.70
2023-01-11T13:00:24.394Z,10.70
2023-01-11T13:03:34.354Z,10.70
2023-01-11T13:06:59.022Z,10.70
2023-01-11T13:10:14.222Z,10.70
2023-01-11T13:13:22.347Z,10.70
2023-01-11T13:16:21.286Z,10.70
2023-01-11T13:19:17.810Z,10.70
2023-01-11T13:22:05.054Z,10.70
2023-01-11T13:24:48.324Z,10.70
2023-01-11T13:27:25.972Z,10.70
2023-01-11T13:30:02.296Z,10.70
2023-01-11T13:32:37.733Z,10.70
2023-01-11T13:35:23.168Z,10.70
2023-01-11T13:38:42.142Z,10.70
2023-01-11T13:41:41.995Z,10.70
2023-01-11T13:44:37.015Z,10.70
2023-01-11T13:47:19.493Z,10.70
2023-01-11T13:50:18.254Z,10.60
2023-01-11T13:53:20.528Z,10.60
2023-01-11T13:56:24.477Z,10.60
2023-01-11T13:59:32.587Z,10.60
2023-01-11T14:02:42.790Z,10.50
2023-01-11T14:05:23.813Z,10.50
2023-01-11T14:08:07.957Z,10.40
2023-01-11T14:11:00.341Z,10.40
2023-01-11T14:14:18.584Z,10.40
2023-01-11T14:17:47.382Z,10.40
2023-01-11T14:20:54.293Z,10.30
2023-01-11T14:23:53.394Z,10.30
2023-01-11T14:26:42.822Z,10.20
2023-01-11T14:29:49.142Z,10.20
2023-01-11T14:32:42.172Z,10.10
2023-01-11T14:35:37.810Z,10.00
2023-01-11T14:38:33.123Z,10.00
2023-01-11T14:41:41.306Z,10.00
2023-01-11T14:44:33.493Z,10.00
2023-01-11T14:47:46.634Z,10.00
2023-01-11T14:51:07.301Z,10.00
2023-01-11T14:54:19.873Z,9.90
2023-01-11T14:56:59.656Z,9.90
2023-01-11T14:59:35.562Z,9.80
2023-01-11T15:02:16.739Z,9.80
2023-01-11T15:04:56.101Z,9.80
2023-01-11T15:07:37.849Z,9.80
2023-01-11T15:10:30.068Z,9.80
2023-01-11T15:13:22.047Z,9.80
2023-01-11T15:16:37.844Z,9.70
2023-01-11T15:19:37.039Z,9.70
2023-01-11T15:22:30.919Z,9.70
2023-01-11T15:25:18.504Z,9.60
2023-01-11T15:27:55.306Z,9.60
2023-01-11T15:30:30.785Z,9.50
2023-01-11T15:33:20.361Z,9.50
2023-01-11T15:36:03.615Z,9.50
2023-01-11T15:39:02.251Z,9.50
2023-01-11T15:42:05.115Z,9.50
2023-01-11T15:45:31.166Z,9.40
2023-01-11T15:48:48.771Z,9.40
2023-01-11T15:52:05.482Z,9.40
2023-01-11T15:55:12.661Z,9.40
2023-01-11T15:58:21.791Z,9.40
2023-01-11T16:01:25.848Z,9.30
2023-01-11T16:04:22.011Z,9.30
2023-01-11T16:07:12.959Z,9.30
2023-01-11T16:10:29.815Z,9.20
2023-01-11T16:13:38.547Z,9.20
2023-01-11T16:16:39.638Z,9.20
2023-01-11T16:19:22.068Z,9.20
2023-01-11T16:22:19.806Z,9.20
2023-01-11T16:25:05.452Z,9.10
2023-01-11T16:27:52.568Z,9.10
2023-01-11T16:30:28.527Z,9.10
2023-01-11T16:33:21.928Z,9.10
2023-01-11T16:36:24.230Z,9.10
2023-01-11T16:39:01.875Z,9.00
2023-01-11T16:42:06.232Z,9.00
2023-01-11T16:45:00.001Z,9.00
2023-01-11T16:47:35.800Z,8.90
2023-01-11T16:50:20.702Z,8.90
2023-01-11T16:52:57.115Z,8.90
2023-01-11T16:55:54.203Z,8.90
2023-01-11T16:58:42.146Z,8.80
2023-01-11T17:01:16.591Z,8.80
2023-01-11T17:03:55.281Z,8.80
2023-01-11T17:06:35.192Z,8.80
2023-01-11T17:09:16.299Z,8.70
2023-01-11T17:12:26.673Z,8.70
2023-01-11T17:15:24.157Z,8.70
2023-01-11T17:18:05.927Z,8.70
2023-01-11T17:20:41.637Z,8.60
2023-01-11T17:23:17.548Z,8.60
2023-01-11T17:25:57.185Z,8.60
2023-01-11T17:28:34.170Z,8.60
2023-01-11T17:31:10.554Z,8.60
2023-01-11T17:34:03.403Z,8.60
2023-01-11T17:36:57.362Z,8.60
2023-01-11T17:39:35.610Z,8.60
2023-01-11T17:42:33.150Z,8.50
2023-01-11T17:45:26.712Z,8.50
2023-01-11T17:48:13.196Z,8.50
2023-01-11T17:50:57.386Z,8.50
2023-01-11T17:53:37.862Z,8.50
2023-01-11T17:56:39.913Z,8.40
2023-01-11T17:59:21.421Z,8.30
2023-01-11T18:02:05.059Z,8.30
2023-01-11T18:04:46.060Z,8.20
2023-01-11T18:07:32.885Z,8.10
2023-01-11T18:10:37.653Z,8.00
2023-01-11T18:13:34.010Z,7.90
2023-01-11T18:16:11.748Z,7.80
2023-01-11T18:18:52.124Z,7.80
2023-01-11T18:21:50.773Z,7.70
2023-01-11T18:24:30.401Z,7.70
2023-01-11T18:27:30.062Z,7.70
2023-01-11T18:30:15.991Z,7.60
2023-01-11T18:33:20.338Z,7.70
2023-01-11T18:36:01.051Z,7.60
2023-01-11T18:38:36.134Z,7.60
2023-01-11T18:41:36.092Z,7.50
2023-01-11T18:44:44.928Z,7.50
2023-01-11T18:47:30.326Z,7.50
2023-01-11T18:50:03.768Z,7.40
2023-01-11T18:52:37.369Z,7.40
2023-01-11T18:55:12.227Z,7.40
2023-01-11T18:57:47.890Z,7.30
2023-01-11T19:00:21.148Z,7.30
2023-01-11T19:02:55.016Z,7.30
2023-01-11T19:05:29.306Z,7.20
2023-01-11T19:08:03.525Z,7.20
2023-01-11T19:10:36.648Z,7.20
2023-01-11T19:13:11.676Z,7.10
2023-01-11T19:15:44.665Z,7.20
2023-01-11T19:18:18.284Z,7.20
2023-01-11T19:20:51.753Z,7.20
2023-01-11T19:23:25.140Z,7.10
2023-01-11T19:25:59.939Z,7.10
2023-01-11T19:28:33.972Z,7.20
2023-01-11T19:31:09.436Z,7.10
2023-01-11T19:33:43.495Z,7.10
2023-01-11T19:36:16.221Z,7.10
2023-01-11T19:38:49.241Z,7.10
2023-01-11T19:41:23.490Z,7.10
2023-01-11T19:43:56.848Z,7.00
2023-01-11T19:46:31.959Z,7.00
2023-01-11T19:49:06.915Z,7.00
2023-01-11T19:51:41.514Z,7.00
2023-01-11T19:54:15.108Z,6.90
2023-01-11T19:56:51.988Z,6.90
2023-01-11T19:59:24.502Z,6.90
2023-01-11T20:01:57.730Z,6.80
2023-01-11T20:04:32.604Z,6.80
2023-01-11T20:07:05.654Z,6.70
2023-01-11T20:09:39.756Z,6.70
2023-01-11T20:12:16.801Z,6.70
2023-01-11T20:14:53.220Z,6.70
2023-01-11T20:17:30.845Z,6.70
2023-01-11T20:20:11.284Z,6.70
2023-01-11T20:22:46.466Z,6.70
2023-01-11T20:25:21.269Z,6.70
2023-01-11T20:27:54.502Z,6.70
2023-01-11T20:30:27.820Z,6.60
2023-01-11T20:33:01.741Z,6.60
2023-01-11T20:35:35.672Z,6.50
2023-01-11T20:38:09.479Z,6.50
2023-01-11T20:40:44.561Z,6.50
2023-01-11T20:43:19.376Z,6.40
2023-01-11T20:45:57.378Z,6.50
2023-01-11T20:48:36.464Z,6.50
2023-01-11T20:51:13.516Z,6.50
2023-01-11T20:53:48.368Z,6.50
2023-01-11T20:56:22.947Z,6.50
2023-01-11T20:59:00.217Z,6.50
2023-01-11T21:01:40.953Z,6.50
2023-01-11T21:04:15.341Z,6.50
2023-01-11T21:06:50.961Z,6.50
2023-01-11T21:09:23.859Z,6.50
2023-01-11T21:11:56.998Z,6.50
2023-01-11T21:14:30.755Z,6.50
2023-01-11T21:17:03.621Z,6.50
2023-01-11T21:19:36.180Z,6.40
2023-01-11T21:22:08.680Z,6.40
2023-01-11T21:24:42.175Z,6.40
2023-01-11T21:27:22.101Z,6.40
2023-01-11T21:29:55.174Z,6.40
2023-01-11T21:32:28.306Z,6.40
2023-01-11T21:35:01.424Z,6.40
2023-01-11T21:37:36.125Z,6.30
2023-01-11T21:40:13.494Z,6.30
2023-01-11T21:42:47.242Z,6.20
2023-01-11T21:45:25.076Z,6.10
2023-01-11T21:47:58.317Z,6.00
2023-01-11T21:50:31.930Z,5.90
2023-01-11T21:53:05.374Z,5.80
2023-01-11T21:55:38.839Z,5.80
2023-01-11T21:58:15.698Z,5.70
2023-01-11T22:00:50.140Z,5.70
2023-01-11T22:03:30.037Z,5.70
2023-01-11T22:06:04.141Z,5.70
2023-01-11T22:08:40.201Z,5.70
2023-01-11T22:11:15.753Z,5.70
2023-01-11T22:13:49.483Z,5.70
2023-01-11T22:16:22.246Z,5.60
2023-01-11T22:18:56.073Z,5.60
2023-01-11T22:21:30.269Z,5.50
2023-01-11T22:24:03.832Z,5.50
2023-01-11T22:26:39.207Z,5.50
2023-01-11T22:29:11.950Z,5.40
2023-01-11T22:31:55.191Z,5.50
2023-01-11T22:34:34.357Z,5.50
2023-01-11T22:37:07.937Z,5.60
2023-01-11T22:39:41.696Z,5.60
2023-01-11T22:42:14.904Z,5.70
2023-01-11T22:44:47.684Z,5.80
2023-01-11T22:47:21.602Z,5.80
2023-01-11T22:49:56.060Z,5.90
2023-01-11T22:52:28.568Z,5.90
2023-01-11T22:55:00.894Z,5.90
2023-01-11T22:57:33.497Z,6.00
2023-01-11T23:00:06.717Z,6.00
2023-01-11T23:02:41.479Z,6.10
2023-01-11T23:05:13.678Z,6.10
2023-01-11T23:07:46.471Z,6.10
2023-01-11T23:10:19.477Z,6.10
2023-01-11T23:13:10.303Z,6.10
2023-01-11T23:16:02.216Z,6.10
2023-01-11T23:18:34.615Z,6.10
2023-01-11T23:21:07.023Z,6.10
2023-01-11T23:23:39.445Z,6.10
2023-01-11T23:26:12.900Z,6.00
2023-01-11T23:28:50.027Z,6.10
2023-01-11T23:31:25.438Z,6.10
2023-01-11T23:34:01.355Z,6.10
2023-01-11T23:36:39.743Z,6.10
2023-01-11T23:39:15.765Z,6.00
2023-01-11T23:42:08.879Z,6.00
2023-01-11T23:45:00.691Z,6.00
2023-01-11T23:47:32.801Z,6.00
2023-01-11T23:50:05.229Z,6.00
2023-01-11T23:52:37.666Z,6.00
2023-01-11T23:55:10.815Z,6.00
2023-01-11T23:58:04.784Z,6.00
